createdAt,value
2022-07-30T00:00:27.162Z,3.95
2022-07-30T00:02:55.020Z,3.45
2022-07-30T00:05:22.912Z,4.00
2022-07-30T00:07:50.842Z,3.47
2022-07-30T00:10:20.538Z,3.80
2022-07-30T00:12:48.402Z,4.10
2022-07-30T00:15:16.365Z,4.00
2022-07-30T00:17:46.771Z,4.55
2022-07-30T00:20:17.391Z,4.25
2022-07-30T00:22:46.613Z,4.07
2022-07-30T00:25:14.583Z,4.13
2022-07-30T00:27:42.460Z,3.65
2022-07-30T00:30:11.211Z,4.10
2022-07-30T00:32:39.246Z,3.63
2022-07-30T00:35:09.613Z,3.60
2022-07-30T00:37:37.462Z,4.20
2022-07-30T00:40:06.912Z,4.30
2022-07-30T00:42:39.478Z,3.70
2022-07-30T00:45:09.185Z,3.85
2022-07-30T00:47:37.308Z,3.70
2022-07-30T00:50:07.411Z,4.00
2022-07-30T00:52:38.233Z,4.40
2022-07-30T00:55:08.244Z,4.43
2022-07-30T00:57:36.242Z,4.35
2022-07-30T01:00:05.847Z,3.95
2022-07-30T01:02:34.299Z,4.18
2022-07-30T01:05:02.402Z,4.72
2022-07-30T01:07:30.512Z,4.47
2022-07-30T01:09:59.794Z,5.25
2022-07-30T01:12:28.958Z,4.40
2022-07-30T01:14:58.959Z,4.07
2022-07-30T01:17:27.044Z,4.18
2022-07-30T01:20:01.055Z,4.32
2022-07-30T01:22:40.336Z,4.55
2022-07-30T01:25:17.085Z,4.95
2022-07-30T01:27:51.221Z,4.95
2022-07-30T01:30:21.397Z,4.43
2022-07-30T01:32:52.033Z,4.18
2022-07-30T01:35:22.783Z,3.75
2022-07-30T01:37:52.676Z,4.18
2022-07-30T01:40:21.929Z,4.45
2022-07-30T01:42:54.823Z,4.55
2022-07-30T01:45:24.599Z,4.88
2022-07-30T01:47:54.295Z,4.38
2022-07-30T01:50:23.935Z,4.28
2022-07-30T01:52:54.929Z,5.07
2022-07-30T01:55:27.480Z,4.78
2022-07-30T01:57:59.361Z,4.30
2022-07-30T02:00:30.755Z,4.88
2022-07-30T02:02:59.038Z,5.15
2022-07-30T02:05:28.972Z,5.30
2022-07-30T02:08:13.978Z,5.25
2022-07-30T02:10:46.409Z,4.32
2022-07-30T02:13:22.093Z,4.93
2022-07-30T02:15:55.664Z,4.68
2022-07-30T02:18:31.877Z,5.00
2022-07-30T02:21:07.329Z,5.38
2022-07-30T02:23:39.974Z,5.35
2022-07-30T02:26:09.967Z,5.22
2022-07-30T02:28:42.459Z,4.88
2022-07-30T02:31:17.018Z,5.30
2022-07-30T02:33:49.534Z,5.78
2022-07-30T02:36:19.617Z,5.47
2022-07-30T02:38:51.374Z,7.60
2022-07-30T02:41:21.285Z,5.90
2022-07-30T02:43:52.034Z,6.35
2022-07-30T02:46:20.883Z,5.80
2022-07-30T02:48:51.123Z,5.63
2022-07-30T02:51:21.009Z,5.72
2022-07-30T02:53:52.028Z,5.28
2022-07-30T02:56:22.197Z,5.53
2022-07-30T02:58:54.203Z,5.47
2022-07-30T03:01:25.844Z,5.40
2022-07-30T03:03:55.247Z,6.20
2022-07-30T03:06:25.537Z,5.60
2022-07-30T03:08:54.925Z,6.38
2022-07-30T03:11:24.970Z,5.40
2022-07-30T03:13:54.288Z,5.97
2022-07-30T03:16:24.067Z,5.85
2022-07-30T03:18:53.425Z,5.70
2022-07-30T03:21:22.698Z,5.82
2022-07-30T03:23:51.453Z,6.47
2022-07-30T03:26:22.170Z,6.18
2022-07-30T03:28:51.496Z,6.70
2022-07-30T03:31:21.230Z,6.20
2022-07-30T03:33:49.678Z,6.07
2022-07-30T03:36:19.346Z,6.28
2022-07-30T03:38:48.301Z,6.47
2022-07-30T03:41:17.347Z,5.93
2022-07-30T03:43:46.349Z,6.82
2022-07-30T03:46:15.135Z,5.60
2022-07-30T03:48:45.639Z,5.65
2022-07-30T03:51:14.186Z,6.13
2022-07-30T03:53:43.371Z,5.28
2022-07-30T03:56:12.115Z,6.18
2022-07-30T03:58:41.229Z,5.97
2022-07-30T04:01:09.117Z,5.13
2022-07-30T04:03:37.185Z,6.35
2022-07-30T04:06:06.705Z,6.03
2022-07-30T04:08:34.586Z,6.25
2022-07-30T04:11:02.511Z,6.35
2022-07-30T04:13:30.578Z,6.00
2022-07-30T04:16:35.006Z,5.60
2022-07-30T04:18:54.408Z,6.05
2022-07-30T04:21:26.896Z,5.70
2022-07-30T04:24:01.903Z,5.13
2022-07-30T04:26:34.104Z,6.40
2022-07-30T04:29:05.108Z,5.85
2022-07-30T04:31:38.461Z,5.90
2022-07-30T04:34:09.076Z,5.72
2022-07-30T04:36:38.293Z,6.60
2022-07-30T04:39:06.177Z,6.45
2022-07-30T04:41:48.801Z,5.57
2022-07-30T04:44:18.717Z,5.78
2022-07-30T04:46:46.835Z,5.85
2022-07-30T04:49:16.997Z,6.35
2022-07-30T04:51:47.138Z,5.13
2022-07-30T04:54:16.254Z,5.35
2022-07-30T04:57:00.876Z,5.45
2022-07-30T04:59:29.040Z,6.00
2022-07-30T05:01:59.838Z,5.35
2022-07-30T05:04:29.690Z,5.32
2022-07-30T05:07:00.180Z,5.25
2022-07-30T05:09:29.515Z,6.47
2022-07-30T05:11:58.024Z,5.85
2022-07-30T05:14:26.501Z,5.53
2022-07-30T05:16:55.780Z,5.25
2022-07-30T05:19:25.106Z,4.78
2022-07-30T05:21:53.258Z,5.13
2022-07-30T05:24:22.980Z,5.07
2022-07-30T05:26:50.869Z,5.70
2022-07-30T05:29:19.966Z,6.65
2022-07-30T05:31:49.184Z,5.95
2022-07-30T05:34:17.696Z,6.53
2022-07-30T05:36:45.977Z,7.78
2022-07-30T05:39:14.493Z,5.97
2022-07-30T05:41:43.673Z,5.80
2022-07-30T05:44:11.616Z,6.03
2022-07-30T05:46:39.562Z,5.30
2022-07-30T05:49:08.289Z,5.53
2022-07-30T05:51:36.250Z,5.65
2022-07-30T05:54:04.177Z,5.88
2022-07-30T05:56:32.233Z,6.40
2022-07-30T05:59:01.511Z,5.35
2022-07-30T06:01:29.537Z,5.80
2022-07-30T06:03:57.452Z,5.65
2022-07-30T06:06:25.283Z,5.97
2022-07-30T06:08:53.149Z,7.00
2022-07-30T06:11:21.188Z,7.72
2022-07-30T06:13:49.081Z,8.15
2022-07-30T06:16:18.351Z,7.72
2022-07-30T06:18:46.264Z,7.22
2022-07-30T06:21:14.467Z,7.28
2022-07-30T06:23:42.325Z,7.53
2022-07-30T06:26:10.247Z,8.90
2022-07-30T06:28:39.170Z,7.28
2022-07-30T06:31:07.502Z,6.70
2022-07-30T06:33:36.793Z,7.13
2022-07-30T06:36:05.294Z,7.03
2022-07-30T06:38:33.180Z,7.40
2022-07-30T06:41:02.734Z,7.88
2022-07-30T06:43:32.491Z,7.20
2022-07-30T06:46:00.752Z,6.43
2022-07-30T06:48:30.856Z,7.20
2022-07-30T06:51:00.117Z,7.15
2022-07-30T06:53:28.165Z,7.75
2022-07-30T06:55:58.379Z,7.43
2022-07-30T06:58:29.193Z,6.32
2022-07-30T07:00:57.242Z,8.18
2022-07-30T07:03:26.229Z,6.95
2022-07-30T07:06:09.302Z,7.22
2022-07-30T07:08:37.685Z,6.38
2022-07-30T07:11:05.686Z,6.85
2022-07-30T07:13:33.608Z,6.32
2022-07-30T07:16:01.559Z,6.68
2022-07-30T07:18:29.405Z,5.93
2022-07-30T07:20:57.380Z,5.70
2022-07-30T07:23:41.357Z,5.70
2022-07-30T07:26:11.679Z,6.18
2022-07-30T07:28:41.011Z,5.25
2022-07-30T07:31:09.126Z,5.07
2022-07-30T07:33:37.351Z,5.05
2022-07-30T07:36:05.998Z,4.63
2022-07-30T07:38:36.562Z,4.63
2022-07-30T07:41:05.366Z,4.50
2022-07-30T07:43:33.385Z,4.28
2022-07-30T07:46:01.303Z,3.88
2022-07-30T07:48:29.255Z,3.53
2022-07-30T07:51:00.114Z,4.63
2022-07-30T07:53:28.593Z,3.65
2022-07-30T07:55:57.942Z,3.70
2022-07-30T07:58:26.525Z,3.65
2022-07-30T08:00:55.208Z,2.95
2022-07-30T08:03:23.146Z,3.40
2022-07-30T08:06:01.795Z,3.83
2022-07-30T08:08:36.474Z,2.70
2022-07-30T08:11:08.200Z,2.50
2022-07-30T08:13:47.950Z,2.40
2022-07-30T08:16:20.445Z,2.75
2022-07-30T08:18:48.438Z,3.13
2022-07-30T08:21:16.352Z,2.88
2022-07-30T08:23:44.293Z,2.03
2022-07-30T08:26:13.503Z,2.40
2022-07-30T08:28:43.070Z,2.28
2022-07-30T08:31:10.992Z,2.22
2022-07-30T08:33:38.863Z,2.28
2022-07-30T08:36:09.745Z,2.42
2022-07-30T08:38:39.119Z,2.40
2022-07-30T08:41:07.627Z,2.10
2022-07-30T08:43:37.665Z,2.50
2022-07-30T08:46:09.740Z,2.25
2022-07-30T08:48:38.292Z,2.08
2022-07-30T08:51:06.875Z,1.98
2022-07-30T08:53:35.693Z,2.33
2022-07-30T08:56:03.841Z,2.40
2022-07-30T08:58:33.867Z,2.08
2022-07-30T09:01:03.804Z,2.47
2022-07-30T09:03:32.562Z,2.17
2022-07-30T09:06:01.944Z,2.30
2022-07-30T09:08:30.376Z,2.28
2022-07-30T09:10:58.653Z,1.90
2022-07-30T09:13:28.429Z,2.00
2022-07-30T09:15:57.041Z,1.45
2022-07-30T09:18:31.032Z,1.35
2022-07-30T09:21:01.480Z,1.50
2022-07-30T09:23:30.005Z,2.08
2022-07-30T09:26:00.564Z,2.50
2022-07-30T09:28:33.136Z,1.63
2022-07-30T09:31:01.649Z,2.22
2022-07-30T09:33:37.294Z,2.03
2022-07-30T09:36:07.234Z,1.75
2022-07-30T09:38:52.554Z,1.95
2022-07-30T09:41:40.300Z,2.30
2022-07-30T09:44:08.763Z,1.50
2022-07-30T09:46:45.490Z,1.70
2022-07-30T09:49:19.463Z,1.83
2022-07-30T09:51:57.081Z,1.60
2022-07-30T09:54:26.287Z,2.00
2022-07-30T09:57:26.353Z,1.45
2022-07-30T09:59:57.533Z,1.98
2022-07-30T10:02:33.460Z,1.95
2022-07-30T10:05:15.294Z,1.60
2022-07-30T10:07:52.036Z,1.40
2022-07-30T10:10:25.732Z,1.50
2022-07-30T10:12:59.032Z,1.65
2022-07-30T10:15:32.521Z,1.55
2022-07-30T10:18:02.109Z,1.70
2022-07-30T10:20:32.222Z,1.60
2022-07-30T10:23:07.797Z,1.33
2022-07-30T10:25:48.969Z,1.50
2022-07-30T10:28:24.178Z,1.40
2022-07-30T10:30:52.788Z,1.40
2022-07-30T10:33:36.653Z,1.35
2022-07-30T10:36:12.135Z,1.70
2022-07-30T10:38:45.931Z,1.50
2022-07-30T10:41:44.280Z,1.40
2022-07-30T10:44:48.957Z,1.90
2022-07-30T10:47:19.628Z,1.20
2022-07-30T10:50:05.806Z,1.48
2022-07-30T10:52:52.560Z,1.25
2022-07-30T10:55:37.478Z,1.88
2022-07-30T10:58:10.715Z,1.58
2022-07-30T11:00:59.897Z,1.08
2022-07-30T11:03:40.178Z,1.10
2022-07-30T11:06:29.148Z,1.27
2022-07-30T11:08:58.548Z,1.63
2022-07-30T11:12:15.675Z,1.77
2022-07-30T11:14:56.366Z,1.23
2022-07-30T11:17:24.278Z,1.35
2022-07-30T11:20:11.907Z,1.30
2022-07-30T11:22:41.331Z,1.65
2022-07-30T11:25:50.951Z,1.10
2022-07-30T11:28:45.073Z,1.23
2022-07-30T11:31:55.179Z,1.20
2022-07-30T11:34:29.790Z,1.20
2022-07-30T11:37:18.231Z,1.10
2022-07-30T11:40:11.990Z,1.10
2022-07-30T11:42:42.643Z,1.50
2022-07-30T11:45:33.190Z,1.10
2022-07-30T11:48:01.381Z,1.33
2022-07-30T11:50:32.074Z,1.77
2022-07-30T11:53:02.301Z,1.35
2022-07-30T11:55:36.292Z,1.52
2022-07-30T11:58:06.457Z,1.65
2022-07-30T12:00:36.486Z,1.20
2022-07-30T12:03:15.381Z,1.10
2022-07-30T12:05:44.696Z,1.10
2022-07-30T12:08:35.246Z,1.10
2022-07-30T12:11:02.921Z,1.40
2022-07-30T12:13:44.149Z,0.98
2022-07-30T12:16:16.192Z,1.33
2022-07-30T12:18:45.044Z,1.00
2022-07-30T12:21:18.601Z,1.10
2022-07-30T12:23:56.663Z,1.23
2022-07-30T12:26:28.827Z,1.25
2022-07-30T12:28:58.170Z,1.25
2022-07-30T12:31:28.398Z,1.20
2022-07-30T12:33:58.896Z,0.90
2022-07-30T12:36:32.987Z,0.98
2022-07-30T12:39:02.019Z,1.17
2022-07-30T12:41:44.267Z,1.63
2022-07-30T12:44:12.395Z,1.17
2022-07-30T12:46:42.107Z,1.10
2022-07-30T12:49:18.291Z,1.10
2022-07-30T12:51:59.747Z,1.23
2022-07-30T12:54:30.026Z,1.13
2022-07-30T12:57:01.783Z,1.17
2022-07-30T12:59:31.011Z,1.17
2022-07-30T13:02:00.433Z,1.20
2022-07-30T13:04:29.418Z,1.15
2022-07-30T13:07:08.518Z,1.00
2022-07-30T13:09:37.198Z,1.23
2022-07-30T13:12:10.076Z,0.70
2022-07-30T13:14:37.936Z,1.30
2022-07-30T13:17:07.218Z,0.95
2022-07-30T13:19:35.193Z,1.10
2022-07-30T13:22:03.209Z,1.20
2022-07-30T13:24:31.235Z,1.02
2022-07-30T13:26:59.358Z,1.42
2022-07-30T13:29:28.612Z,1.20
2022-07-30T13:31:56.580Z,1.20
2022-07-30T13:34:24.445Z,1.92
2022-07-30T13:36:52.321Z,1.20
2022-07-30T13:39:20.204Z,1.30
2022-07-30T13:41:48.194Z,1.30
2022-07-30T13:44:16.116Z,2.80
2022-07-30T13:46:45.335Z,1.63
2022-07-30T13:49:13.283Z,1.75
2022-07-30T13:51:41.306Z,1.08
2022-07-30T13:54:10.725Z,1.50
2022-07-30T13:56:41.869Z,1.77
2022-07-30T13:59:09.978Z,1.67
2022-07-30T14:01:38.153Z,1.85
2022-07-30T14:04:08.586Z,1.60
2022-07-30T14:06:36.682Z,1.48
2022-07-30T14:09:04.815Z,1.58
2022-07-30T14:11:33.167Z,1.38
2022-07-30T14:14:01.180Z,1.80
2022-07-30T14:16:44.714Z,1.58
2022-07-30T14:19:23.639Z,1.45
2022-07-30T14:21:53.888Z,1.52
2022-07-30T14:24:22.843Z,1.25
2022-07-30T14:26:57.423Z,1.48
2022-07-30T14:29:27.076Z,1.48
2022-07-30T14:31:55.118Z,1.40
2022-07-30T14:34:24.417Z,0.98
2022-07-30T14:36:52.755Z,1.33
2022-07-30T14:39:20.974Z,1.02
2022-07-30T14:41:50.750Z,1.40
2022-07-30T14:44:21.037Z,1.23
2022-07-30T14:46:52.185Z,1.10
2022-07-30T14:49:21.244Z,1.42
2022-07-30T14:51:50.615Z,1.20
2022-07-30T14:54:18.590Z,1.10
2022-07-30T14:56:46.485Z,1.27
2022-07-30T14:59:14.491Z,1.45
2022-07-30T15:01:43.766Z,1.63
2022-07-30T15:04:12.510Z,1.55
2022-07-30T15:06:41.705Z,1.38
2022-07-30T15:09:11.046Z,1.40
2022-07-30T15:12:04.248Z,1.27
2022-07-30T15:14:28.410Z,1.40
2022-07-30T15:17:02.012Z,1.23
2022-07-30T15:19:32.056Z,1.35
2022-07-30T15:22:02.145Z,1.25
2022-07-30T15:24:32.405Z,1.58
2022-07-30T15:27:00.647Z,1.40
2022-07-30T15:29:30.229Z,1.45
2022-07-30T15:32:00.098Z,1.35
2022-07-30T15:34:28.793Z,1.00
2022-07-30T15:36:56.716Z,1.48
2022-07-30T15:39:24.594Z,1.20
2022-07-30T15:41:58.002Z,1.98
2022-07-30T15:44:26.000Z,1.75
2022-07-30T15:46:53.851Z,1.40
2022-07-30T15:49:22.189Z,1.40
2022-07-30T15:51:50.273Z,1.35
2022-07-30T15:54:22.663Z,1.30
2022-07-30T15:56:51.228Z,1.20
2022-07-30T15:59:21.018Z,1.77
2022-07-30T16:01:49.271Z,1.45
2022-07-30T16:04:19.346Z,1.25
2022-07-30T16:06:48.032Z,1.10
2022-07-30T16:09:16.146Z,1.40
2022-07-30T16:11:44.170Z,1.27
2022-07-30T16:14:14.798Z,1.08
2022-07-30T16:16:44.126Z,1.10
2022-07-30T16:19:12.816Z,0.90
2022-07-30T16:21:41.068Z,0.90
2022-07-30T16:24:09.059Z,1.02
2022-07-30T16:26:37.320Z,0.80
2022-07-30T16:29:05.396Z,1.00
2022-07-30T16:31:33.414Z,1.27
2022-07-30T16:34:02.984Z,0.90
2022-07-30T16:36:30.844Z,1.42
2022-07-30T16:38:58.716Z,1.08
2022-07-30T16:41:26.807Z,1.13
2022-07-30T16:43:54.918Z,1.20
2022-07-30T16:46:23.775Z,1.52
2022-07-30T16:48:52.157Z,0.95
2022-07-30T16:51:21.554Z,1.10
2022-07-30T16:53:49.559Z,1.25
2022-07-30T16:56:17.714Z,1.13
2022-07-30T16:58:45.976Z,0.80
2022-07-30T17:01:14.104Z,1.10
2022-07-30T17:03:42.123Z,1.60
2022-07-30T17:06:10.173Z,6.70
2022-07-30T17:08:39.384Z,15.40
2022-07-30T17:11:09.340Z,6.32
2022-07-30T17:13:38.059Z,4.93
2022-07-30T17:16:07.066Z,22.20
2022-07-30T17:18:34.949Z,2.20
2022-07-30T17:21:02.956Z,1.60
2022-07-30T17:23:31.057Z,1.50
2022-07-30T17:26:00.290Z,1.60
2022-07-30T17:28:28.148Z,2.67
2022-07-30T17:30:56.165Z,1.95
2022-07-30T17:33:24.062Z,4.68
2022-07-30T17:35:52.042Z,1.35
2022-07-30T17:38:19.959Z,1.33
2022-07-30T17:40:48.732Z,2.05
2022-07-30T17:43:17.938Z,1.58
2022-07-30T17:45:45.872Z,1.85
2022-07-30T17:48:13.718Z,2.55
2022-07-30T17:50:41.618Z,4.55
2022-07-30T17:53:09.781Z,1.15
2022-07-30T17:55:37.650Z,2.05
2022-07-30T17:58:06.363Z,3.35
2022-07-30T18:00:35.775Z,2.67
2022-07-30T18:03:03.873Z,1.50
2022-07-30T18:05:31.774Z,2.67
2022-07-30T18:07:59.646Z,2.90
2022-07-30T18:10:27.615Z,3.10
2022-07-30T18:12:56.304Z,2.50
2022-07-30T18:15:24.303Z,23.58
2022-07-30T18:17:53.582Z,2.90
2022-07-30T18:20:21.559Z,21.67
2022-07-30T18:22:51.753Z,3.00
2022-07-30T18:25:19.894Z,2.50
2022-07-30T18:27:48.453Z,3.33
2022-07-30T18:30:16.733Z,1.55
2022-07-30T18:32:45.305Z,5.32
2022-07-30T18:35:15.514Z,1.88
2022-07-30T18:37:44.603Z,1.30
2022-07-30T18:40:14.536Z,1.52
2022-07-30T18:42:43.090Z,1.33
2022-07-30T18:45:13.888Z,1.27
2022-07-30T18:47:42.373Z,1.23
2022-07-30T18:50:10.757Z,1.20
2022-07-30T18:52:40.185Z,1.58
2022-07-30T18:55:11.287Z,1.60
2022-07-30T18:57:39.697Z,1.35
2022-07-30T19:00:10.538Z,1.38
2022-07-30T19:02:58.397Z,1.17
2022-07-30T19:05:26.388Z,1.23
2022-07-30T19:07:58.486Z,1.42
2022-07-30T19:10:27.463Z,1.23
2022-07-30T19:12:55.744Z,1.10
2022-07-30T19:15:23.758Z,1.30
2022-07-30T19:17:51.923Z,1.23
2022-07-30T19:20:20.182Z,1.85
2022-07-30T19:22:48.058Z,1.30
2022-07-30T19:25:18.048Z,1.13
2022-07-30T19:27:45.897Z,1.60
2022-07-30T19:30:14.374Z,1.40
2022-07-30T19:32:42.222Z,2.70
2022-07-30T19:35:14.483Z,1.55
2022-07-30T19:37:42.674Z,1.60
2022-07-30T19:40:11.964Z,1.67
2022-07-30T19:42:42.147Z,1.30
2022-07-30T19:45:13.146Z,1.15
2022-07-30T19:50:29.161Z,1.53
2022-07-30T19:52:58.277Z,1.27
2022-07-30T19:55:35.112Z,1.63
2022-07-30T19:58:16.187Z,1.67
2022-07-30T20:00:48.487Z,2.25
2022-07-30T20:03:26.226Z,2.30
2022-07-30T20:05:59.874Z,1.65
2022-07-30T20:08:27.935Z,1.55
2022-07-30T20:10:57.594Z,2.80
2022-07-30T20:13:44.421Z,2.70
2022-07-30T20:16:13.901Z,2.28
2022-07-30T20:18:42.769Z,2.40
2022-07-30T20:21:15.011Z,2.13
2022-07-30T20:23:44.276Z,1.95
2022-07-30T20:26:14.231Z,1.77
2022-07-30T20:28:47.612Z,2.10
2022-07-30T20:33:50.043Z,1.65
2022-07-30T20:36:18.997Z,1.90
2022-07-30T20:38:47.105Z,1.90
2022-07-30T20:41:15.272Z,1.80
2022-07-30T20:43:51.448Z,1.85
2022-07-30T20:46:20.657Z,1.67
2022-07-30T20:48:51.933Z,1.65
2022-07-30T20:51:19.925Z,1.50
2022-07-30T20:53:49.272Z,1.48
2022-07-30T20:56:20.009Z,1.88
2022-07-30T20:58:49.316Z,1.58
2022-07-30T21:01:18.426Z,1.83
2022-07-30T21:03:47.719Z,1.73
2022-07-30T21:06:16.733Z,1.58
2022-07-30T21:08:44.632Z,2.20
2022-07-30T21:11:13.351Z,1.38
2022-07-30T21:13:42.485Z,2.03
2022-07-30T21:16:16.309Z,2.05
2022-07-30T21:18:59.587Z,2.25
2022-07-30T21:21:41.785Z,1.98
2022-07-30T21:24:18.791Z,2.08
2022-07-30T21:26:49.481Z,2.28
2022-07-30T21:29:18.346Z,2.28
2022-07-30T21:32:02.357Z,2.20
2022-07-30T21:34:35.902Z,3.05
2022-07-30T21:37:08.494Z,2.30
2022-07-30T21:39:39.849Z,2.20
2022-07-30T21:42:08.707Z,2.90
2022-07-30T21:44:36.812Z,3.15
2022-07-30T21:47:10.379Z,3.38
2022-07-30T21:49:39.227Z,3.35
2022-07-30T21:52:08.627Z,2.78
2022-07-30T21:57:26.725Z,2.57
2022-07-30T21:59:58.550Z,2.58
2022-07-30T22:02:28.078Z,2.13
2022-07-30T22:04:56.407Z,2.40
2022-07-30T22:07:27.093Z,2.25
2022-07-30T22:09:55.109Z,2.20
2022-07-30T22:12:25.821Z,2.33
2022-07-30T22:14:57.077Z,2.25
2022-07-30T22:17:37.305Z,2.60
2022-07-30T22:20:14.458Z,2.78
2022-07-30T22:22:43.249Z,2.97
2022-07-30T22:25:11.698Z,2.58
2022-07-30T22:27:56.234Z,2.60
2022-07-30T22:30:26.588Z,2.25
2022-07-30T22:32:54.840Z,2.53
2022-07-30T22:35:33.592Z,2.92
2022-07-30T22:38:02.929Z,2.42
2022-07-30T22:40:30.921Z,2.40
2022-07-30T22:42:58.826Z,2.78
2022-07-30T22:45:47.029Z,1.90
2022-07-30T22:48:17.578Z,2.65
2022-07-30T22:50:51.789Z,2.60
2022-07-30T22:54:03.203Z,2.90
2022-07-30T22:56:14.005Z,2.63
2022-07-30T22:58:43.594Z,2.53
2022-07-30T23:01:11.477Z,2.03
2022-07-30T23:03:39.377Z,2.55
2022-07-30T23:06:14.830Z,2.33
2022-07-30T23:08:44.322Z,2.95
2022-07-30T23:11:12.166Z,2.50
2022-07-30T23:12:15.038Z,1.08
2022-07-30T23:12:27.819Z,2.90
2022-07-30T23:13:40.014Z,2.67
2022-07-30T23:16:07.848Z,2.72
2022-07-30T23:18:36.023Z,2.60
2022-07-30T23:21:04.670Z,2.70
2022-07-30T23:23:35.547Z,2.60
2022-07-30T23:26:03.576Z,2.53
2022-07-30T23:28:31.507Z,2.65
2022-07-30T23:30:59.418Z,2.70
2022-07-30T23:33:27.373Z,3.25
2022-07-30T23:35:55.233Z,2.92
2022-07-30T23:38:23.110Z,3.38
2022-07-30T23:40:52.462Z,3.10
2022-07-30T23:43:20.390Z,2.83
2022-07-30T23:45:48.335Z,3.30
2022-07-30T23:48:16.185Z,4.20
2022-07-30T23:50:44.771Z,4.07
2022-07-30T23:53:12.664Z,4.45
2022-07-30T23:55:40.636Z,4.50
2022-07-30T23:58:10.274Z,4.40
